sensor_id;sensor_type;location;lat;lon;timestamp;pressure;altitude;pressure_sealevel;temperature;humidity
13553;BME280;6847;48.830;9.116;2023-03-14T00:02:07;96294.72;;;12.39;77.43
13553;BME280;6847;48.830;9.116;2023-03-14T00:04:34;96269.19;;;12.40;77.70
13553;BME280;6847;48.830;9.116;2023-03-14T00:07:16;96305.84;;;12.46;77.70
13553;BME280;6847;48.830;9.116;2023-03-14T00:09:43;96320.84;;;12.52;77.00
13553;BME280;6847;48.830;9.116;2023-03-14T00:12:10;96283.13;;;12.59;77.39
13553;BME280;6847;48.830;9.116;2023-03-14T00:14:37;96217.00;;;12.13;77.38
13553;BME280;6847;48.830;9.116;2023-03-14T00:17:05;96238.22;;;12.41;77.40
13553;BME280;6847;48.830;9.116;2023-03-14T00:19:32;96285.91;;;12.71;76.46
13553;BME280;6847;48.830;9.116;2023-03-14T00:21:59;96272.78;;;12.73;76.85
13553;BME280;6847;48.830;9.116;2023-03-14T00:24:27;96247.34;;;12.57;76.67
13553;BME280;6847;48.830;9.116;2023-03-14T00:26:54;96272.00;;;12.73;77.01
13553;BME280;6847;48.830;9.116;2023-03-14T00:29:30;96266.28;;;12.66;76.63
13553;BME280;6847;48.830;9.116;2023-03-14T00:31:57;96268.94;;;12.74;76.57
13553;BME280;6847;48.830;9.116;2023-03-14T00:34:28;96268.28;;;12.77;76.75
13553;BME280;6847;48.830;9.116;2023-03-14T00:36:56;96264.44;;;12.78;76.79
13553;BME280;6847;48.830;9.116;2023-03-14T00:39:25;96250.53;;;12.59;76.19
13553;BME280;6847;48.830;9.116;2023-03-14T00:41:53;96082.84;;;11.52;75.82
13553;BME280;6847;48.830;9.116;2023-03-14T00:44:20;96225.09;;;12.43;76.55
13553;BME280;6847;48.830;9.116;2023-03-14T00:46:46;96268.09;;;12.82;75.83
13553;BME280;6847;48.830;9.116;2023-03-14T00:49:15;96266.97;;;12.83;75.91
13553;BME280;6847;48.830;9.116;2023-03-14T00:51:42;96278.63;;;12.84;75.71
13553;BME280;6847;48.830;9.116;2023-03-14T00:54:09;96278.97;;;12.82;76.50
13553;BME280;6847;48.830;9.116;2023-03-14T00:56:36;96286.44;;;12.85;75.80
13553;BME280;6847;48.830;9.116;2023-03-14T00:59:05;96288.03;;;12.86;76.42
13553;BME280;6847;48.830;9.116;2023-03-14T01:01:31;96284.19;;;12.87;76.53
13553;BME280;6847;48.830;9.116;2023-03-14T01:03:58;96287.38;;;12.89;76.64
13553;BME280;6847;48.830;9.116;2023-03-14T01:06:26;96297.59;;;12.92;76.60
13553;BME280;6847;48.830;9.116;2023-03-14T01:08:57;96302.34;;;12.95;76.63
13553;BME280;6847;48.830;9.116;2023-03-14T01:11:25;96301.69;;;12.98;76.73
13553;BME280;6847;48.830;9.116;2023-03-14T01:13:53;96308.72;;;13.00;76.38
13553;BME280;6847;48.830;9.116;2023-03-14T01:16:24;96297.84;;;13.00;76.80
13553;BME280;6847;48.830;9.116;2023-03-14T01:18:52;96240.31;;;12.56;76.65
13553;BME280;6847;48.830;9.116;2023-03-14T01:21:21;96307.25;;;12.81;76.27
13553;BME280;6847;48.830;9.116;2023-03-14T01:23:53;96300.88;;;12.77;76.54
13553;BME280;6847;48.830;9.116;2023-03-14T01:26:22;96281.41;;;12.75;77.06
13553;BME280;6847;48.830;9.116;2023-03-14T01:28:52;96263.66;;;12.78;77.11
13553;BME280;6847;48.830;9.116;2023-03-14T01:31:19;96255.19;;;12.79;77.13
13553;BME280;6847;48.830;9.116;2023-03-14T01:33:47;96259.16;;;12.82;76.94
13553;BME280;6847;48.830;9.116;2023-03-14T01:36:15;96253.19;;;12.88;76.51
13553;BME280;6847;48.830;9.116;2023-03-14T01:38:43;96234.31;;;12.92;76.57
13553;BME280;6847;48.830;9.116;2023-03-14T01:41:13;96230.91;;;12.95;76.26
13553;BME280;6847;48.830;9.116;2023-03-14T01:43:45;96217.66;;;12.93;76.69
13553;BME280;6847;48.830;9.116;2023-03-14T01:46:26;96197.69;;;12.98;76.48
13553;BME280;6847;48.830;9.116;2023-03-14T01:48:59;96194.63;;;13.00;75.91
13553;BME280;6847;48.830;9.116;2023-03-14T01:51:31;96189.19;;;13.00;75.74
13553;BME280;6847;48.830;9.116;2023-03-14T01:54:04;96206.28;;;13.00;76.14
13553;BME280;6847;48.830;9.116;2023-03-14T01:56:32;96213.66;;;13.00;75.80
13553;BME280;6847;48.830;9.116;2023-03-14T01:59:02;96048.09;;;11.83;75.96
13553;BME280;6847;48.830;9.116;2023-03-14T02:01:31;96196.22;;;13.01;76.27
13553;BME280;6847;48.830;9.116;2023-03-14T02:04:04;96205.97;;;13.02;75.98
13553;BME280;6847;48.830;9.116;2023-03-14T02:06:41;96208.69;;;13.02;76.04
13553;BME280;6847;48.830;9.116;2023-03-14T02:09:10;96200.97;;;13.04;75.23
13553;BME280;6847;48.830;9.116;2023-03-14T02:11:37;96208.00;;;13.05;75.87
13553;BME280;6847;48.830;9.116;2023-03-14T02:14:03;96193.94;;;13.03;75.22
13553;BME280;6847;48.830;9.116;2023-03-14T02:16:31;96171.72;;;12.88;75.65
13553;BME280;6847;48.830;9.116;2023-03-14T02:18:57;96177.94;;;12.89;75.21
13553;BME280;6847;48.830;9.116;2023-03-14T02:21:38;96132.13;;;12.67;75.62
13553;BME280;6847;48.830;9.116;2023-03-14T02:24:13;96128.72;;;12.57;75.31
13553;BME280;6847;48.830;9.116;2023-03-14T02:27:07;96170.19;;;13.00;74.92
13553;BME280;6847;48.830;9.116;2023-03-14T02:29:36;96153.41;;;12.97;74.62
13553;BME280;6847;48.830;9.116;2023-03-14T02:32:06;96153.41;;;12.97;74.75
13553;BME280;6847;48.830;9.116;2023-03-14T02:34:33;96155.00;;;12.98;75.19
13553;BME280;6847;48.830;9.116;2023-03-14T02:37:00;96116.22;;;12.77;75.34
13553;BME280;6847;48.830;9.116;2023-03-14T02:39:32;96113.47;;;12.65;75.08
13553;BME280;6847;48.830;9.116;2023-03-14T02:42:01;96151.81;;;12.96;74.85
13553;BME280;6847;48.830;9.116;2023-03-14T02:44:29;96157.25;;;12.96;75.04
13553;BME280;6847;48.830;9.116;2023-03-14T02:46:57;96118.00;;;12.73;75.24
13553;BME280;6847;48.830;9.116;2023-03-14T02:49:25;96010.94;;;12.17;75.60
13553;BME280;6847;48.830;9.116;2023-03-14T02:51:55;96144.16;;;12.98;75.72
13553;BME280;6847;48.830;9.116;2023-03-14T02:54:22;96142.69;;;13.01;76.13
13553;BME280;6847;48.830;9.116;2023-03-14T02:56:49;96130.34;;;13.04;75.46
13553;BME280;6847;48.830;9.116;2023-03-14T02:59:15;96121.06;;;13.05;76.00
13553;BME280;6847;48.830;9.116;2023-03-14T03:01:43;96120.81;;;12.97;75.91
13553;BME280;6847;48.830;9.116;2023-03-14T03:04:11;96109.53;;;13.08;75.75
13553;BME280;6847;48.830;9.116;2023-03-14T03:06:38;96096.28;;;13.06;76.08
13553;BME280;6847;48.830;9.116;2023-03-14T03:09:05;96105.69;;;13.09;75.51
13553;BME280;6847;48.830;9.116;2023-03-14T03:11:32;96099.78;;;13.07;75.41
13553;BME280;6847;48.830;9.116;2023-03-14T03:13:58;96090.50;;;13.08;75.63
13553;BME280;6847;48.830;9.116;2023-03-14T03:16:25;96089.72;;;13.07;75.36
13553;BME280;6847;48.830;9.116;2023-03-14T03:18:54;96082.38;;;13.08;75.55
13553;BME280;6847;48.830;9.116;2023-03-14T03:21:21;96071.50;;;13.08;76.09
13553;BME280;6847;48.830;9.116;2023-03-14T03:23:49;96082.38;;;13.08;75.18
13553;BME280;6847;48.830;9.116;2023-03-14T03:26:19;95978.16;;;12.43;75.63
13553;BME280;6847;48.830;9.116;2023-03-14T03:28:45;96063.56;;;12.90;75.73
13553;BME280;6847;48.830;9.116;2023-03-14T03:31:12;96086.66;;;13.09;75.86
13553;BME280;6847;48.830;9.116;2023-03-14T03:33:39;96086.22;;;13.07;75.71
13553;BME280;6847;48.830;9.116;2023-03-14T03:36:08;96085.41;;;13.06;75.67
13553;BME280;6847;48.830;9.116;2023-03-14T03:38:35;96067.19;;;13.07;75.72
13553;BME280;6847;48.830;9.116;2023-03-14T03:41:03;96040.44;;;12.84;75.51
13553;BME280;6847;48.830;9.116;2023-03-14T03:43:30;96065.84;;;13.01;75.48
13553;BME280;6847;48.830;9.116;2023-03-14T03:45:57;96006.47;;;12.66;75.15
13553;BME280;6847;48.830;9.116;2023-03-14T03:48:23;96055.63;;;12.97;75.17
13553;BME280;6847;48.830;9.116;2023-03-14T03:50:50;96052.47;;;12.95;75.08
13553;BME280;6847;48.830;9.116;2023-03-14T03:53:19;96057.44;;;12.93;75.03
13553;BME280;6847;48.830;9.116;2023-03-14T03:55:46;96062.84;;;12.93;75.49
13553;BME280;6847;48.830;9.116;2023-03-14T03:58:12;96053.16;;;12.92;75.57
13553;BME280;6847;48.830;9.116;2023-03-14T04:00:39;96047.72;;;12.92;75.13
13553;BME280;6847;48.830;9.116;2023-03-14T04:03:05;96066.28;;;12.90;75.25
13553;BME280;6847;48.830;9.116;2023-03-14T04:05:32;96049.97;;;12.90;74.60
13553;BME280;6847;48.830;9.116;2023-03-14T04:07:59;96061.50;;;12.87;74.47
13553;BME280;6847;48.830;9.116;2023-03-14T04:10:27;96045.88;;;12.84;75.33
13553;BME280;6847;48.830;9.116;2023-03-14T04:12:54;95996.03;;;12.56;74.72
13553;BME280;6847;48.830;9.116;2023-03-14T04:15:21;96041.22;;;12.85;74.70
13553;BME280;6847;48.830;9.116;2023-03-14T04:17:47;96050.88;;;12.82;75.17
13553;BME280;6847;48.830;9.116;2023-03-14T04:20:14;96045.44;;;12.82;74.28
13553;BME280;6847;48.830;9.116;2023-03-14T04:22:40;96049.72;;;12.83;74.25
13553;BME280;6847;48.830;9.116;2023-03-14T04:25:08;96050.41;;;12.80;75.04
13553;BME280;6847;48.830;9.116;2023-03-14T04:27:38;96044.97;;;12.80;74.38
13553;BME280;6847;48.830;9.116;2023-03-14T04:30:06;96044.50;;;12.78;74.81
13553;BME280;6847;48.830;9.116;2023-03-14T04:32:33;96045.63;;;12.77;74.17
13553;BME280;6847;48.830;9.116;2023-03-14T04:35:00;96045.63;;;12.77;74.99
13553;BME280;6847;48.830;9.116;2023-03-14T04:37:26;96040.19;;;12.77;74.54
13553;BME280;6847;48.830;9.116;2023-03-14T04:39:53;96035.91;;;12.76;74.19
13553;BME280;6847;48.830;9.116;2023-03-14T04:42:19;96038.63;;;12.76;74.93
13553;BME280;6847;48.830;9.116;2023-03-14T04:44:47;96012.91;;;12.74;74.79
13553;BME280;6847;48.830;9.116;2023-03-14T04:47:15;96021.84;;;12.74;74.38
13553;BME280;6847;48.830;9.116;2023-03-14T04:49:44;95966.38;;;12.39;74.64
13553;BME280;6847;48.830;9.116;2023-03-14T04:52:10;96013.72;;;12.74;74.87
13553;BME280;6847;48.830;9.116;2023-03-14T04:54:38;96012.13;;;12.73;74.26
13553;BME280;6847;48.830;9.116;2023-03-14T04:57:07;95992.66;;;12.59;73.81
13553;BME280;6847;48.830;9.116;2023-03-14T04:59:33;96011.22;;;12.69;73.93
13553;BME280;6847;48.830;9.116;2023-03-14T05:02:01;96002.63;;;12.67;74.62
13553;BME280;6847;48.830;9.116;2023-03-14T05:04:28;95998.78;;;12.68;74.13
13553;BME280;6847;48.830;9.116;2023-03-14T05:06:58;95993.34;;;12.68;74.80
13553;BME280;6847;48.830;9.116;2023-03-14T05:09:24;95942.38;;;12.29;74.24
13553;BME280;6847;48.830;9.116;2023-03-14T05:11:51;95844.06;;;11.66;74.78
13553;BME280;6847;48.830;9.116;2023-03-14T05:14:18;95990.19;;;12.66;74.20
13553;BME280;6847;48.830;9.116;2023-03-14T05:16:46;95994.16;;;12.69;74.42
13553;BME280;6847;48.830;9.116;2023-03-14T05:19:14;95986.34;;;12.67;74.76
13553;BME280;6847;48.830;9.116;2023-03-14T05:21:41;95994.47;;;12.67;74.54
13553;BME280;6847;48.830;9.116;2023-03-14T05:24:07;95994.03;;;12.65;74.10
13553;BME280;6847;48.830;9.116;2023-03-14T05:26:35;95990.19;;;12.66;74.59
13553;BME280;6847;48.830;9.116;2023-03-14T05:29:02;95923.63;;;12.23;74.38
13553;BME280;6847;48.830;9.116;2023-03-14T05:31:28;95996.88;;;12.69;74.10
13553;BME280;6847;48.830;9.116;2023-03-14T05:33:55;95855.69;;;11.87;74.09
13553;BME280;6847;48.830;9.116;2023-03-14T07:55:31;96028.91;;;25.91;54.76
13553;BME280;6847;48.830;9.116;2023-03-14T07:58:17;96012.66;;;25.93;55.02
13553;BME280;6847;48.830;9.116;2023-03-14T08:01:02;96011.19;;;26.32;54.27
13553;BME280;6847;48.830;9.116;2023-03-14T08:03:48;96021.28;;;26.42;53.17
13553;BME280;6847;48.830;9.116;2023-03-14T08:06:34;96018.22;;;26.36;53.71
13553;BME280;6847;48.830;9.116;2023-03-14T08:09:22;96012.66;;;26.36;53.70
13553;BME280;6847;48.830;9.116;2023-03-14T08:12:11;96014.91;;;26.22;54.35
13553;BME280;6847;48.830;9.116;2023-03-14T08:14:57;96006.25;;;25.96;54.93
13553;BME280;6847;48.830;9.116;2023-03-14T08:17:43;95998.00;;;26.56;54.20
13553;BME280;6847;48.830;9.116;2023-03-14T08:20:29;96003.50;;;27.15;52.99
13553;BME280;6847;48.830;9.116;2023-03-14T08:23:18;96006.81;;;27.26;53.35
13553;BME280;6847;48.830;9.116;2023-03-14T08:26:03;95999.75;;;25.60;56.24
13553;BME280;6847;48.830;9.116;2023-03-14T08:28:51;95983.28;;;24.34;58.52
13553;BME280;6847;48.830;9.116;2023-03-14T08:31:38;96004.34;;;23.80;59.01
13553;BME280;6847;48.830;9.116;2023-03-14T08:34:24;95976.09;;;23.62;58.70
13553;BME280;6847;48.830;9.116;2023-03-14T08:37:10;95992.34;;;23.01;59.11
13553;BME280;6847;48.830;9.116;2023-03-14T08:39:56;95978.63;;;21.47;61.23
13553;BME280;6847;48.830;9.116;2023-03-14T08:42:41;95865.19;;;19.92;62.91
13553;BME280;6847;48.830;9.116;2023-03-14T08:45:29;96007.25;;;19.95;63.56
13553;BME280;6847;48.830;9.116;2023-03-14T08:48:15;95999.00;;;19.44;64.98
13553;BME280;6847;48.830;9.116;2023-03-14T08:51:05;96007.06;;;19.19;66.05
13553;BME280;6847;48.830;9.116;2023-03-14T08:53:52;96010.88;;;20.13;65.27
13553;BME280;6847;48.830;9.116;2023-03-14T08:56:37;96011.66;;;21.78;62.17
13553;BME280;6847;48.830;9.116;2023-03-14T08:59:27;95966.81;;;21.11;63.34
13553;BME280;6847;48.830;9.116;2023-03-14T09:02:16;96025.59;;;20.49;65.11
13553;BME280;6847;48.830;9.116;2023-03-14T09:05:06;96003.72;;;19.43;66.41
13553;BME280;6847;48.830;9.116;2023-03-14T09:07:56;96032.97;;;19.73;66.96
13553;BME280;6847;48.830;9.116;2023-03-14T09:10:45;96034.41;;;19.52;66.38
13553;BME280;6847;48.830;9.116;2023-03-14T09:13:33;96050.16;;;18.81;67.76
13553;BME280;6847;48.830;9.116;2023-03-14T09:16:18;96051.75;;;18.23;68.47
13553;BME280;6847;48.830;9.116;2023-03-14T09:19:11;96062.75;;;17.70;68.97
13553;BME280;6847;48.830;9.116;2023-03-14T09:21:56;96059.91;;;17.44;69.65
13553;BME280;6847;48.830;9.116;2023-03-14T09:24:42;96063.59;;;17.28;69.76
13553;BME280;6847;48.830;9.116;2023-03-14T09:27:27;96087.38;;;17.05;70.65
13553;BME280;6847;48.830;9.116;2023-03-14T09:30:15;96068.28;;;16.86;70.33
13553;BME280;6847;48.830;9.116;2023-03-14T09:33:02;96074.34;;;16.76;70.68
13553;BME280;6847;48.830;9.116;2023-03-14T09:35:50;96073.34;;;16.64;70.60
13553;BME280;6847;48.830;9.116;2023-03-14T09:38:36;96073.03;;;16.50;70.53
13553;BME280;6847;48.830;9.116;2023-03-14T09:41:25;96080.78;;;16.48;70.81
13553;BME280;6847;48.830;9.116;2023-03-14T09:44:14;96089.28;;;16.43;71.05
13553;BME280;6847;48.830;9.116;2023-03-14T09:47:04;96076.78;;;16.42;71.04
13553;BME280;6847;48.830;9.116;2023-03-14T09:49:50;96086.06;;;16.76;70.80
13553;BME280;6847;48.830;9.116;2023-03-14T09:52:39;96083.84;;;16.82;70.34
13553;BME280;6847;48.830;9.116;2023-03-14T09:55:30;96058.53;;;16.65;70.50
13553;BME280;6847;48.830;9.116;2023-03-14T09:58:19;96074.66;;;17.35;70.34
13553;BME280;6847;48.830;9.116;2023-03-14T10:01:09;96066.81;;;18.99;67.29
13553;BME280;6847;48.830;9.116;2023-03-14T10:04:02;96063.47;;;20.15;65.63
13553;BME280;6847;48.830;9.116;2023-03-14T10:06:50;96058.06;;;21.55;62.82
13553;BME280;6847;48.830;9.116;2023-03-14T10:09:38;96070.13;;;22.68;60.67
13553;BME280;6847;48.830;9.116;2023-03-14T10:12:32;96067.88;;;23.87;59.65
13553;BME280;6847;48.830;9.116;2023-03-14T10:15:24;96052.06;;;24.66;58.63
13553;BME280;6847;48.830;9.116;2023-03-14T10:18:14;96025.94;;;24.37;57.70
13553;BME280;6847;48.830;9.116;2023-03-14T10:21:06;96067.72;;;24.46;58.14
13553;BME280;6847;48.830;9.116;2023-03-14T10:23:51;96066.25;;;24.34;58.23
13553;BME280;6847;48.830;9.116;2023-03-14T10:26:39;96053.47;;;23.00;59.66
13553;BME280;6847;48.830;9.116;2023-03-14T10:29:25;96066.31;;;21.55;62.09
13553;BME280;6847;48.830;9.116;2023-03-14T10:32:19;96042.84;;;20.43;64.11
13553;BME280;6847;48.830;9.116;2023-03-14T10:38:16;96042.13;;;19.43;66.27
13553;BME280;6847;48.830;9.116;2023-03-14T10:41:15;96030.44;;;20.91;64.76
13553;BME280;6847;48.830;9.116;2023-03-14T10:44:20;96014.03;;;21.34;63.22
13553;BME280;6847;48.830;9.116;2023-03-14T10:47:16;96043.09;;;21.35;63.79
13553;BME280;6847;48.830;9.116;2023-03-14T10:50:23;96045.25;;;20.55;64.58
13553;BME280;6847;48.830;9.116;2023-03-14T10:53:23;96051.31;;;19.58;65.58
13553;BME280;6847;48.830;9.116;2023-03-14T10:56:13;96062.78;;;18.90;66.78
13553;BME280;6847;48.830;9.116;2023-03-14T10:58:59;96058.91;;;18.31;66.95
13553;BME280;6847;48.830;9.116;2023-03-14T11:01:51;96055.84;;;17.57;67.67
13553;BME280;6847;48.830;9.116;2023-03-14T11:04:49;96076.13;;;17.29;67.93
13553;BME280;6847;48.830;9.116;2023-03-14T11:07:42;96082.81;;;16.90;67.88
13553;BME280;6847;48.830;9.116;2023-03-14T11:10:32;96080.38;;;16.65;67.90
13553;BME280;6847;48.830;9.116;2023-03-14T11:13:29;96101.63;;;16.37;68.10
13553;BME280;6847;48.830;9.116;2023-03-14T11:16:24;96103.28;;;16.07;68.38
13553;BME280;6847;48.830;9.116;2023-03-14T11:22:41;96097.75;;;14.93;68.33
13553;BME280;6847;48.830;9.116;2023-03-14T11:25:32;96072.44;;;14.37;68.83
13553;BME280;6847;48.830;9.116;2023-03-14T11:28:33;96103.09;;;14.22;69.61
13553;BME280;6847;48.830;9.116;2023-03-14T11:31:26;96092.59;;;13.96;70.13
13553;BME280;6847;48.830;9.116;2023-03-14T11:34:16;96103.94;;;13.74;70.17
13553;BME280;6847;48.830;9.116;2023-03-14T11:37:05;96074.28;;;13.44;70.55
13553;BME280;6847;48.830;9.116;2023-03-14T11:40:01;96097.81;;;13.52;71.46
13553;BME280;6847;48.830;9.116;2023-03-14T11:42:59;96100.34;;;13.57;71.95
13553;BME280;6847;48.830;9.116;2023-03-14T11:45:48;96107.47;;;13.62;71.93
13553;BME280;6847;48.830;9.116;2023-03-14T11:48:45;96103.28;;;13.64;71.84
13553;BME280;6847;48.830;9.116;2023-03-14T11:51:35;96122.75;;;13.54;71.61
13553;BME280;6847;48.830;9.116;2023-03-14T11:54:28;96132.94;;;13.45;71.55
13553;BME280;6847;48.830;9.116;2023-03-14T11:57:20;96130.66;;;13.35;72.30
13553;BME280;6847;48.830;9.116;2023-03-14T12:00:14;96130.09;;;13.29;72.36
13553;BME280;6847;48.830;9.116;2023-03-14T12:03:09;96142.47;;;13.39;72.67
13553;BME280;6847;48.830;9.116;2023-03-14T12:06:06;96147.00;;;13.84;73.42
13553;BME280;6847;48.830;9.116;2023-03-14T12:08:56;96160.09;;;14.30;73.01
13553;BME280;6847;48.830;9.116;2023-03-14T12:11:47;96170.56;;;14.40;72.61
13553;BME280;6847;48.830;9.116;2023-03-14T12:14:37;96173.72;;;14.30;72.16
13553;BME280;6847;48.830;9.116;2023-03-14T12:17:35;96174.88;;;14.05;72.13
13553;BME280;6847;48.830;9.116;2023-03-14T12:20:22;96193.47;;;13.79;72.26
13553;BME280;6847;48.830;9.116;2023-03-14T12:23:11;96211.47;;;13.71;72.87
13553;BME280;6847;48.830;9.116;2023-03-14T12:26:08;96221.84;;;13.90;72.48
13553;BME280;6847;48.830;9.116;2023-03-14T12:29:11;96222.50;;;14.11;72.80
13553;BME280;6847;48.830;9.116;2023-03-14T12:32:22;96234.63;;;14.01;71.75
13553;BME280;6847;48.830;9.116;2023-03-14T12:35:34;96258.34;;;14.13;72.03
13553;BME280;6847;48.830;9.116;2023-03-14T12:38:24;96255.28;;;13.90;71.75
13553;BME280;6847;48.830;9.116;2023-03-14T12:41:17;96290.31;;;14.16;72.57
13553;BME280;6847;48.830;9.116;2023-03-14T12:44:39;96287.28;;;14.42;72.42
13553;BME280;6847;48.830;9.116;2023-03-14T12:47:44;96297.13;;;14.83;72.22
13553;BME280;6847;48.830;9.116;2023-03-14T12:50:33;96303.28;;;15.20;71.79
13553;BME280;6847;48.830;9.116;2023-03-14T12:57:24;96319.94;;;16.30;70.55
13553;BME280;6847;48.830;9.116;2023-03-14T13:00:19;96313.13;;;16.55;70.09
13553;BME280;6847;48.830;9.116;2023-03-14T13:03:19;96328.59;;;16.63;69.09
13553;BME280;6847;48.830;9.116;2023-03-14T13:06:13;96356.00;;;16.67;68.85
13553;BME280;6847;48.830;9.116;2023-03-14T13:09:49;96368.03;;;16.97;68.07
13553;BME280;6847;48.830;9.116;2023-03-14T13:12:39;96388.13;;;16.58;67.51
13553;BME280;6847;48.830;9.116;2023-03-14T13:15:29;96414.69;;;16.14;66.97
13553;BME280;6847;48.830;9.116;2023-03-14T13:18:23;96403.06;;;15.61;66.85
13553;BME280;6847;48.830;9.116;2023-03-14T13:21:19;96430.38;;;15.37;66.53
13553;BME280;6847;48.830;9.116;2023-03-14T13:24:22;96419.47;;;15.37;66.23
13553;BME280;6847;48.830;9.116;2023-03-14T13:27:16;96438.56;;;15.25;65.50
13553;BME280;6847;48.830;9.116;2023-03-14T13:30:14;96446.06;;;15.15;64.88
13553;BME280;6847;48.830;9.116;2023-03-14T13:33:04;96447.66;;;15.16;64.86
13553;BME280;6847;48.830;9.116;2023-03-14T13:35:57;96414.28;;;14.95;64.86
13553;BME280;6847;48.830;9.116;2023-03-14T13:38:43;96448.56;;;14.84;64.15
13553;BME280;6847;48.830;9.116;2023-03-14T13:41:30;96477.94;;;14.66;64.18
13553;BME280;6847;48.830;9.116;2023-03-14T13:44:18;96417.09;;;14.17;64.30
13553;BME280;6847;48.830;9.116;2023-03-14T13:47:12;96491.34;;;14.38;64.08
13553;BME280;6847;48.830;9.116;2023-03-14T13:49:59;96493.81;;;14.31;63.54
13553;BME280;6847;48.830;9.116;2023-03-14T13:52:46;96450.28;;;13.78;63.00
13553;BME280;6847;48.830;9.116;2023-03-14T13:55:39;96521.84;;;14.11;62.88
13553;BME280;6847;48.830;9.116;2023-03-14T13:58:28;96543.50;;;14.07;62.62
13553;BME280;6847;48.830;9.116;2023-03-14T14:01:16;96541.25;;;13.89;62.19
13553;BME280;6847;48.830;9.116;2023-03-14T14:04:07;96546.38;;;13.82;62.20
13553;BME280;6847;48.830;9.116;2023-03-14T14:06:55;96561.25;;;13.84;62.04
13553;BME280;6847;48.830;9.116;2023-03-14T14:09:49;96536.56;;;13.68;61.65
13553;BME280;6847;48.830;9.116;2023-03-14T14:12:42;96494.72;;;12.93;60.60
13553;BME280;6847;48.830;9.116;2023-03-14T14:15:40;96584.03;;;13.50;60.01
13553;BME280;6847;48.830;9.116;2023-03-14T14:18:28;96607.91;;;13.36;60.21
13553;BME280;6847;48.830;9.116;2023-03-14T14:21:14;96614.19;;;13.28;59.94
13553;BME280;6847;48.830;9.116;2023-03-14T14:24:00;96654.19;;;13.19;59.86
13553;BME280;6847;48.830;9.116;2023-03-14T14:26:50;96637.56;;;13.12;59.73
13553;BME280;6847;48.830;9.116;2023-03-14T14:29:36;96642.66;;;13.05;60.04
13553;BME280;6847;48.830;9.116;2023-03-14T14:32:22;96619.09;;;12.79;59.89
13553;BME280;6847;48.830;9.116;2023-03-14T14:35:10;96628.81;;;12.89;59.61
13553;BME280;6847;48.830;9.116;2023-03-14T14:38:12;96671.31;;;12.85;59.63
13553;BME280;6847;48.830;9.116;2023-03-14T14:41:00;96638.56;;;12.81;59.70
13553;BME280;6847;48.830;9.116;2023-03-14T14:43:51;96648.63;;;12.81;59.47
13553;BME280;6847;48.830;9.116;2023-03-14T14:46:37;96659.34;;;12.77;59.03
13553;BME280;6847;48.830;9.116;2023-03-14T14:49:29;96663.66;;;12.78;59.18
13553;BME280;6847;48.830;9.116;2023-03-14T14:52:17;96682.50;;;12.75;59.32
13553;BME280;6847;48.830;9.116;2023-03-14T14:55:11;96715.25;;;12.78;59.18
13553;BME280;6847;48.830;9.116;2023-03-14T14:57:59;96688.72;;;12.75;58.57
13553;BME280;6847;48.830;9.116;2023-03-14T15:01:02;96694.63;;;12.77;59.32
13553;BME280;6847;48.830;9.116;2023-03-14T15:03:58;96699.13;;;12.90;58.93
13553;BME280;6847;48.830;9.116;2023-03-14T15:06:45;96691.91;;;12.94;59.28
13553;BME280;6847;48.830;9.116;2023-03-14T15:09:31;96701.16;;;13.11;59.00
13553;BME280;6847;48.830;9.116;2023-03-14T15:12:17;96696.06;;;13.18;59.02
13553;BME280;6847;48.830;9.116;2023-03-14T15:15:04;96707.84;;;13.39;59.00
13553;BME280;6847;48.830;9.116;2023-03-14T15:17:51;96702.19;;;13.53;58.34
13553;BME280;6847;48.830;9.116;2023-03-14T15:20:36;96718.38;;;13.49;58.47
13553;BME280;6847;48.830;9.116;2023-03-14T15:23:22;96726.22;;;13.51;58.27
13553;BME280;6847;48.830;9.116;2023-03-14T15:26:11;96716.63;;;13.45;58.34
13553;BME280;6847;48.830;9.116;2023-03-14T15:28:58;96722.25;;;13.31;58.85
13553;BME280;6847;48.830;9.116;2023-03-14T15:31:43;96716.84;;;13.14;58.91
13553;BME280;6847;48.830;9.116;2023-03-14T15:34:30;96710.75;;;13.08;59.27
13553;BME280;6847;48.830;9.116;2023-03-14T15:37:16;96735.69;;;13.10;59.20
13553;BME280;6847;48.830;9.116;2023-03-14T15:40:02;96708.53;;;13.02;58.73
13553;BME280;6847;48.830;9.116;2023-03-14T15:42:58;96724.19;;;13.22;59.09
13553;BME280;6847;48.830;9.116;2023-03-14T15:45:44;96719.19;;;13.32;58.44
13553;BME280;6847;48.830;9.116;2023-03-14T15:48:29;96731.06;;;13.28;58.99
13553;BME280;6847;48.830;9.116;2023-03-14T15:51:17;96732.19;;;13.27;59.28
13553;BME280;6847;48.830;9.116;2023-03-14T15:54:03;96733.13;;;13.31;58.91
13553;BME280;6847;48.830;9.116;2023-03-14T15:56:48;96735.84;;;13.40;58.76
13553;BME280;6847;48.830;9.116;2023-03-14T15:59:35;96737.91;;;13.34;58.54
13553;BME280;6847;48.830;9.116;2023-03-14T16:02:21;96739.53;;;13.18;58.98
13553;BME280;6847;48.830;9.116;2023-03-14T16:05:07;96748.31;;;12.97;59.25
13553;BME280;6847;48.830;9.116;2023-03-14T16:07:56;96756.47;;;12.80;59.10
13553;BME280;6847;48.830;9.116;2023-03-14T16:10:42;96749.44;;;12.62;59.30
13553;BME280;6847;48.830;9.116;2023-03-14T16:13:28;96766.81;;;12.52;59.52
13553;BME280;6847;48.830;9.116;2023-03-14T16:16:14;96780.22;;;12.40;59.16
13553;BME280;6847;48.830;9.116;2023-03-14T16:19:07;96777.81;;;12.39;58.94
13553;BME280;6847;48.830;9.116;2023-03-14T16:21:52;96776.19;;;12.29;59.60
13553;BME280;6847;48.830;9.116;2023-03-14T16:24:39;96791.81;;;12.23;59.05
13553;BME280;6847;48.830;9.116;2023-03-14T16:27:24;96787.81;;;12.21;59.37
13553;BME280;6847;48.830;9.116;2023-03-14T16:30:13;96740.63;;;11.91;59.15
13553;BME280;6847;48.830;9.116;2023-03-14T16:32:58;96611.34;;;10.90;58.86
13553;BME280;6847;48.830;9.116;2023-03-14T16:35:53;96766.50;;;11.97;58.80
13553;BME280;6847;48.830;9.116;2023-03-14T16:38:40;96797.53;;;12.13;59.61
13553;BME280;6847;48.830;9.116;2023-03-14T16:41:42;96783.88;;;11.96;59.18
13553;BME280;6847;48.830;9.116;2023-03-14T16:44:31;96649.03;;;11.09;58.83
13553;BME280;6847;48.830;9.116;2023-03-14T16:47:17;96793.13;;;11.95;59.13
13553;BME280;6847;48.830;9.116;2023-03-14T16:50:03;96801.63;;;12.02;59.27
13553;BME280;6847;48.830;9.116;2023-03-14T16:52:49;96826.88;;;12.11;59.17
13553;BME280;6847;48.830;9.116;2023-03-14T16:55:34;96836.75;;;12.07;59.20